createdAt,value
2022-08-11T00:00:00.895Z,39.54
2022-08-11T00:02:35.524Z,39.37
2022-08-11T00:05:09.081Z,39.34
2022-08-11T00:07:45.338Z,39.56
2022-08-11T00:10:16.439Z,39.70
2022-08-11T00:12:54.131Z,38.96
2022-08-11T00:15:22.780Z,39.13
2022-08-11T00:17:58.442Z,39.08
2022-08-11T00:20:33.159Z,38.65
2022-08-11T00:23:07.616Z,38.60
2022-08-11T00:25:41.581Z,38.19
2022-08-11T00:28:27.030Z,37.75
2022-08-11T00:30:57.070Z,37.26
2022-08-11T00:33:41.070Z,37.30
2022-08-11T00:36:18.950Z,37.95
2022-08-11T00:38:54.683Z,38.17
2022-08-11T00:41:35.364Z,38.01
2022-08-11T00:44:37.629Z,38.51
2022-08-11T00:47:22.439Z,38.88
2022-08-11T00:50:05.790Z,38.95
2022-08-11T00:53:13.549Z,38.98
2022-08-11T00:56:34.981Z,38.78
2022-08-11T00:59:58.045Z,38.65
2022-08-11T01:03:09.912Z,38.66
2022-08-11T01:06:13.054Z,39.30
2022-08-11T01:09:25.082Z,39.42
2022-08-11T01:12:28.973Z,39.57
2022-08-11T01:15:43.584Z,39.94
2022-08-11T01:19:16.089Z,40.02
2022-08-11T01:22:24.481Z,39.96
2022-08-11T01:25:57.301Z,40.43
2022-08-11T01:29:17.306Z,40.34
2022-08-11T01:32:27.684Z,39.93
2022-08-11T01:36:07.563Z,39.47
2022-08-11T01:39:11.876Z,39.63
2022-08-11T01:42:45.538Z,39.41
2022-08-11T01:45:35.328Z,39.38
2022-08-11T01:48:13.549Z,39.40
2022-08-11T01:51:16.922Z,39.07
2022-08-11T01:53:57.137Z,39.43
2022-08-11T01:56:50.809Z,39.32
2022-08-11T01:59:25.798Z,39.57
2022-08-11T02:02:45.919Z,39.81
2022-08-11T02:05:42.332Z,39.85
2022-08-11T02:08:33.242Z,39.71
2022-08-11T02:11:35.570Z,39.66
2022-08-11T02:14:25.609Z,39.84
2022-08-11T02:17:14.992Z,40.58
2022-08-11T02:20:15.095Z,40.71
2022-08-11T02:23:13.238Z,40.88
2022-08-11T02:26:10.121Z,40.98
2022-08-11T02:28:54.211Z,41.05
2022-08-11T02:32:23.970Z,41.33
2022-08-11T02:34:59.899Z,41.51
2022-08-11T02:37:45.276Z,41.55
2022-08-11T02:40:25.970Z,40.97
2022-08-11T02:43:12.356Z,41.51
2022-08-11T02:45:59.459Z,41.54
2022-08-11T02:48:59.094Z,41.55
2022-08-11T02:51:38.555Z,41.66
2022-08-11T02:54:15.987Z,41.74
2022-08-11T02:56:53.162Z,41.51
2022-08-11T02:59:51.523Z,41.98
2022-08-11T03:02:41.153Z,41.69
2022-08-11T03:05:25.060Z,41.58
2022-08-11T03:08:09.500Z,41.29
2022-08-11T03:11:10.329Z,42.05
2022-08-11T03:14:04.783Z,42.35
2022-08-11T03:16:48.315Z,42.30
2022-08-11T03:19:27.116Z,42.40
2022-08-11T03:22:09.244Z,42.21
2022-08-11T03:24:56.996Z,42.98
2022-08-11T03:27:47.833Z,43.25
2022-08-11T03:30:20.591Z,43.66
2022-08-11T03:33:26.546Z,43.71
2022-08-11T03:36:10.041Z,43.59
2022-08-11T03:39:00.882Z,44.28
2022-08-11T03:42:04.463Z,44.75
2022-08-11T03:44:51.546Z,44.46
2022-08-11T03:47:53.491Z,44.61
2022-08-11T03:50:53.087Z,44.84
2022-08-11T03:53:45.475Z,45.22
2022-08-11T03:57:18.162Z,45.05
2022-08-11T04:00:18.295Z,45.10
2022-08-11T04:03:38.478Z,45.07
2022-08-11T04:07:00.057Z,44.91
2022-08-11T04:10:25.014Z,44.74
2022-08-11T04:13:41.054Z,45.09
2022-08-11T04:16:31.762Z,45.09
2022-08-11T04:19:54.470Z,46.09
2022-08-11T04:22:55.249Z,45.86
2022-08-11T04:26:22.493Z,46.51
2022-08-11T04:29:09.693Z,45.76
2022-08-11T04:31:52.733Z,46.40
2022-08-11T04:34:59.984Z,47.37
2022-08-11T04:37:59.355Z,47.26
2022-08-11T04:40:55.920Z,47.42
2022-08-11T04:44:27.365Z,47.22
2022-08-11T04:48:03.891Z,47.81
2022-08-11T04:51:17.151Z,47.54
2022-08-11T04:54:19.372Z,47.65
2022-08-11T04:57:07.034Z,47.74
2022-08-11T05:00:11.870Z,48.05
2022-08-11T05:03:36.414Z,48.07
2022-08-11T05:07:09.326Z,48.06
2022-08-11T05:10:04.049Z,48.24
2022-08-11T05:12:42.222Z,48.04
2022-08-11T05:15:51.415Z,48.22
2022-08-11T05:18:42.764Z,48.47
2022-08-11T05:21:44.325Z,48.63
2022-08-11T05:24:48.601Z,48.66
2022-08-11T05:27:38.110Z,48.53
2022-08-11T05:30:26.743Z,48.59
2022-08-11T05:33:24.201Z,48.39
2022-08-11T05:36:03.456Z,47.66
2022-08-11T05:38:54.914Z,47.85
2022-08-11T05:41:44.292Z,47.70
2022-08-11T05:44:38.218Z,47.85
2022-08-11T05:47:24.989Z,47.64
2022-08-11T05:50:13.511Z,46.42
2022-08-11T05:53:09.124Z,46.42
2022-08-11T05:56:03.001Z,46.31
2022-08-11T05:58:41.303Z,45.89
2022-08-11T06:01:14.206Z,45.26
2022-08-11T06:04:08.939Z,45.49
2022-08-11T06:06:45.210Z,45.49
2022-08-11T06:09:14.704Z,44.98
2022-08-11T06:11:45.125Z,44.63
2022-08-11T06:14:15.907Z,44.52
2022-08-11T06:16:50.018Z,44.30
2022-08-11T06:19:23.055Z,44.14
2022-08-11T06:21:53.146Z,43.83
2022-08-11T06:24:21.442Z,43.54
2022-08-11T06:29:54.446Z,43.37
2022-08-11T06:32:30.389Z,43.08
2022-08-11T06:35:19.805Z,42.79
2022-08-11T06:38:03.558Z,42.73
2022-08-11T06:40:39.555Z,43.08
2022-08-11T06:43:19.536Z,42.90
2022-08-11T06:46:03.077Z,42.96
2022-08-11T06:48:35.003Z,42.94
2022-08-11T06:51:12.378Z,42.22
2022-08-11T06:54:03.708Z,42.49
2022-08-11T06:57:28.235Z,42.61
2022-08-11T07:00:02.525Z,42.49
2022-08-11T07:02:35.187Z,42.31
2022-08-11T07:05:13.505Z,42.49
2022-08-11T07:08:44.655Z,42.00
2022-08-11T07:12:02.625Z,42.21
2022-08-11T07:14:50.923Z,42.21
2022-08-11T07:17:23.471Z,41.50
2022-08-11T07:20:14.210Z,41.36
2022-08-11T07:23:14.899Z,41.58
2022-08-11T07:26:03.588Z,41.08
2022-08-11T07:28:49.184Z,41.31
2022-08-11T07:31:23.342Z,41.26
2022-08-11T07:34:06.462Z,41.26
2022-08-11T07:36:41.912Z,41.08
2022-08-11T07:39:18.863Z,40.60
2022-08-11T07:41:48.263Z,40.78
2022-08-11T07:44:17.420Z,40.74
2022-08-11T07:47:09.310Z,40.24
2022-08-11T07:49:58.458Z,40.30
2022-08-11T07:52:32.630Z,40.35
2022-08-11T07:55:08.515Z,39.85
2022-08-11T07:58:14.509Z,39.82
2022-08-11T08:01:10.669Z,39.29
2022-08-11T08:04:07.471Z,39.64
2022-08-11T08:06:55.333Z,38.84
2022-08-11T08:09:42.741Z,39.35
2022-08-11T08:12:30.905Z,38.52
2022-08-11T08:15:17.476Z,38.24
2022-08-11T08:18:20.449Z,38.31
2022-08-11T08:20:46.327Z,38.48
2022-08-11T08:23:14.782Z,38.08
2022-08-11T08:25:45.444Z,37.44
2022-08-11T08:28:21.580Z,36.65
2022-08-11T08:30:51.709Z,37.20
2022-08-11T08:33:23.252Z,37.31
2022-08-11T08:36:11.417Z,37.10
2022-08-11T08:38:42.875Z,37.24
2022-08-11T08:41:13.215Z,35.45
2022-08-11T08:43:50.024Z,35.61
2022-08-11T08:46:28.872Z,35.07
2022-08-11T08:49:01.329Z,35.53
2022-08-11T08:52:01.346Z,35.22
2022-08-11T08:54:31.523Z,34.83
2022-08-11T08:57:05.312Z,34.54
2022-08-11T08:59:48.733Z,33.74
2022-08-11T09:02:33.471Z,34.36
2022-08-11T09:05:04.754Z,33.78
2022-08-11T09:07:39.585Z,32.68
2022-08-11T09:10:10.729Z,33.15
2022-08-11T09:12:43.066Z,33.72
2022-08-11T09:15:19.288Z,32.81
2022-08-11T09:17:50.154Z,32.40
2022-08-11T09:20:23.830Z,32.77
2022-08-11T09:26:21.015Z,32.26
2022-08-11T09:28:50.202Z,32.89
2022-08-11T09:31:22.865Z,32.53
2022-08-11T09:33:55.906Z,32.22
2022-08-11T09:36:41.973Z,31.72
2022-08-11T09:39:31.413Z,30.62
2022-08-11T09:42:03.290Z,30.28
2022-08-11T09:44:49.580Z,29.71
2022-08-11T09:47:24.206Z,29.93
2022-08-11T09:49:56.202Z,29.36
2022-08-11T09:52:25.685Z,29.15
2022-08-11T09:54:55.647Z,29.44
2022-08-11T09:57:42.186Z,29.39
2022-08-11T10:00:15.276Z,28.85
2022-08-11T10:02:49.438Z,29.40
2022-08-11T10:05:38.194Z,28.95
2022-08-11T10:08:08.325Z,28.76
2022-08-11T10:10:39.572Z,28.28
2022-08-11T10:14:30.277Z,28.41
2022-08-11T10:16:15.184Z,28.89
2022-08-11T10:18:52.808Z,28.91
2022-08-11T10:21:30.193Z,28.02
2022-08-11T10:24:19.726Z,28.46
2022-08-11T10:27:00.374Z,27.42
2022-08-11T10:29:51.972Z,27.29
2022-08-11T10:32:57.997Z,27.96
2022-08-11T10:35:30.422Z,28.28
2022-08-11T10:38:06.863Z,27.96
2022-08-11T10:40:40.625Z,26.89
2022-08-11T10:43:14.080Z,26.16
2022-08-11T10:46:18.598Z,25.17
2022-08-11T10:48:58.046Z,26.03
2022-08-11T10:51:50.747Z,26.62
2022-08-11T10:54:41.075Z,25.68
2022-08-11T10:57:37.736Z,26.21
2022-08-11T11:00:08.551Z,26.92
2022-08-11T11:02:36.906Z,26.82
2022-08-11T11:05:14.158Z,27.44
2022-08-11T11:07:55.946Z,26.27
2022-08-11T11:10:24.306Z,26.78
2022-08-11T11:13:15.366Z,25.82
2022-08-11T11:16:06.359Z,26.19
2022-08-11T11:18:38.279Z,26.65
2022-08-11T11:21:09.405Z,27.11
2022-08-11T11:23:47.530Z,26.37
2022-08-11T11:26:38.369Z,26.81
2022-08-11T11:29:31.355Z,26.06
2022-08-11T11:32:18.722Z,25.97
2022-08-11T11:35:23.811Z,27.04
2022-08-11T11:38:04.595Z,26.44
2022-08-11T11:40:35.430Z,26.23
2022-08-11T11:43:05.207Z,25.35
2022-08-11T11:45:33.865Z,25.06
2022-08-11T11:48:03.071Z,25.26
2022-08-11T11:50:35.081Z,26.86
2022-08-11T11:53:06.998Z,25.91
2022-08-11T11:55:37.263Z,26.22
2022-08-11T11:58:23.982Z,25.75
2022-08-11T12:01:12.392Z,25.98
2022-08-11T12:03:41.402Z,25.41
2022-08-11T12:06:14.174Z,25.12
2022-08-11T12:08:44.003Z,26.06
2022-08-11T12:11:28.529Z,25.05
2022-08-11T12:14:00.294Z,26.01
2022-08-11T12:16:32.773Z,25.10
2022-08-11T12:19:07.467Z,26.22
2022-08-11T12:21:37.708Z,25.03
2022-08-11T12:24:29.278Z,25.52
2022-08-11T12:27:18.283Z,25.77
2022-08-11T12:29:54.553Z,26.17
2022-08-11T12:32:26.748Z,25.84
2022-08-11T12:34:57.838Z,25.41
2022-08-11T12:37:31.192Z,25.82
2022-08-11T12:40:43.757Z,24.70
2022-08-11T12:43:37.195Z,25.13
2022-08-11T12:46:11.114Z,25.12
2022-08-11T12:49:04.329Z,24.62
2022-08-11T12:52:12.483Z,25.41
2022-08-11T12:54:59.674Z,24.64
2022-08-11T12:57:51.199Z,24.69
2022-08-11T13:00:39.234Z,25.14
2022-08-11T13:03:28.843Z,25.51
2022-08-11T13:05:59.275Z,24.78
2022-08-11T13:08:30.226Z,25.29
2022-08-11T13:11:19.348Z,25.21
2022-08-11T13:13:53.650Z,24.67
2022-08-11T13:16:30.681Z,25.56
2022-08-11T13:19:01.766Z,25.36
2022-08-11T13:21:31.063Z,24.64
2022-08-11T13:24:03.144Z,24.61
2022-08-11T13:26:47.191Z,24.59
2022-08-11T13:29:20.487Z,24.92
2022-08-11T13:31:53.424Z,24.88
2022-08-11T13:34:24.337Z,24.35
2022-08-11T13:36:55.198Z,24.53
2022-08-11T13:39:25.056Z,23.78
2022-08-11T13:41:56.735Z,23.62
2022-08-11T13:44:29.769Z,23.54
2022-08-11T13:47:04.297Z,23.36
2022-08-11T13:49:34.698Z,24.31
2022-08-11T13:52:03.921Z,23.52
2022-08-11T13:54:36.108Z,23.66
2022-08-11T13:57:13.420Z,23.61
2022-08-11T13:59:52.245Z,23.57
2022-08-11T14:02:30.274Z,24.38
2022-08-11T14:05:04.129Z,23.39
2022-08-11T14:07:39.934Z,23.47
2022-08-11T14:10:11.830Z,22.97
2022-08-11T14:13:01.639Z,23.35
2022-08-11T14:15:35.161Z,23.66
2022-08-11T14:18:10.246Z,23.43
2022-08-11T14:21:00.640Z,23.28
2022-08-11T14:23:33.782Z,23.67
2022-08-11T14:26:20.616Z,23.21
2022-08-11T14:28:49.511Z,23.64
2022-08-11T14:31:18.200Z,23.23
2022-08-11T14:33:59.798Z,22.93
2022-08-11T14:36:33.946Z,23.61
2022-08-11T14:39:08.245Z,22.88
2022-08-11T14:42:07.673Z,23.67
2022-08-11T14:45:02.101Z,23.02
2022-08-11T14:47:34.736Z,22.36
2022-08-11T14:50:10.917Z,22.61
2022-08-11T14:52:50.465Z,23.03
2022-08-11T14:55:37.512Z,23.06
2022-08-11T14:58:06.542Z,22.90
2022-08-11T15:00:42.517Z,22.67
2022-08-11T15:03:15.456Z,22.66
2022-08-11T15:05:56.829Z,22.68
2022-08-11T15:08:51.157Z,23.26
2022-08-11T15:11:40.787Z,22.50
2022-08-11T15:14:11.749Z,22.19
2022-08-11T15:17:03.381Z,22.70
2022-08-11T15:19:41.082Z,22.15
2022-08-11T15:22:29.316Z,22.39
2022-08-11T15:24:59.924Z,22.16
2022-08-11T15:27:48.912Z,22.25
2022-08-11T15:30:35.643Z,22.20
2022-08-11T15:33:25.992Z,23.08
2022-08-11T15:36:14.596Z,22.93
2022-08-11T15:38:55.489Z,22.81
2022-08-11T15:41:58.769Z,22.13
2022-08-11T15:45:05.708Z,23.00
2022-08-11T15:47:47.156Z,22.66
2022-08-11T15:50:21.849Z,23.45
2022-08-11T15:52:57.697Z,22.63
2022-08-11T15:55:29.880Z,23.02
2022-08-11T15:58:17.727Z,22.93
2022-08-11T16:01:08.886Z,23.09
2022-08-11T16:04:07.891Z,23.49
2022-08-11T16:06:47.795Z,22.65
2022-08-11T16:09:24.627Z,23.09
2022-08-11T16:11:58.362Z,23.38
2022-08-11T16:14:46.186Z,23.49
2022-08-11T16:17:17.450Z,22.90
2022-08-11T16:19:47.828Z,22.92
2022-08-11T16:22:28.421Z,22.76
2022-08-11T16:27:04.891Z,22.93
2022-08-11T16:27:51.587Z,22.21
2022-08-11T16:30:19.822Z,22.75
2022-08-11T16:32:53.055Z,23.08
2022-08-11T16:35:42.939Z,23.37
2022-08-11T16:38:31.683Z,22.63
2022-08-11T16:41:06.187Z,22.83
2022-08-11T16:44:00.597Z,23.29
2022-08-11T16:46:47.672Z,23.26
2022-08-11T16:49:21.984Z,23.57
2022-08-11T16:51:50.085Z,23.86
2022-08-11T16:54:18.416Z,23.29
2022-08-11T16:56:50.118Z,23.57
2022-08-11T16:59:24.128Z,23.87
2022-08-11T17:01:55.806Z,23.30
2022-08-11T17:04:55.227Z,23.66
2022-08-11T17:07:54.949Z,23.81
2022-08-11T17:10:51.615Z,23.57
2022-08-11T17:13:29.199Z,23.36
2022-08-11T17:16:11.737Z,23.41
2022-08-11T17:18:55.323Z,23.29
2022-08-11T17:21:29.819Z,23.73
2022-08-11T17:24:09.045Z,24.03
2022-08-11T17:27:04.999Z,23.33
2022-08-11T17:29:53.713Z,24.00
2022-08-11T17:32:55.996Z,23.63
2022-08-11T17:35:33.660Z,23.57
2022-08-11T17:38:07.746Z,23.82
2022-08-11T17:40:39.656Z,24.04
2022-08-11T17:43:27.337Z,23.98
2022-08-11T17:46:15.026Z,23.74
2022-08-11T17:48:48.229Z,23.60
2022-08-11T17:51:34.658Z,23.90
2022-08-11T17:54:24.943Z,24.13
2022-08-11T17:57:21.000Z,24.35
2022-08-11T17:59:56.849Z,23.81
2022-08-11T18:02:48.233Z,23.70
2022-08-11T18:05:20.717Z,24.03
2022-08-11T18:08:12.501Z,24.18
2022-08-11T18:11:00.760Z,24.56
2022-08-11T18:13:50.145Z,24.22
2022-08-11T18:16:36.889Z,24.54
2022-08-11T18:19:22.996Z,24.75
2022-08-11T18:22:15.549Z,25.10
2022-08-11T18:25:08.864Z,24.74
2022-08-11T18:27:57.106Z,25.03
2022-08-11T18:30:43.780Z,25.08
2022-08-11T18:36:41.671Z,25.80
2022-08-11T18:39:31.991Z,25.39
2022-08-11T18:42:29.664Z,26.87
2022-08-11T18:45:20.063Z,30.04
2022-08-11T18:48:11.530Z,30.79
2022-08-11T18:51:31.066Z,30.43
2022-08-11T18:54:10.454Z,30.72
2022-08-11T18:56:58.589Z,31.74
2022-08-11T18:59:47.107Z,31.37
2022-08-11T19:02:49.427Z,30.54
2022-08-11T19:06:32.205Z,31.09
2022-08-11T19:08:49.886Z,31.27
2022-08-11T19:11:42.636Z,31.15
2022-08-11T19:14:33.493Z,31.00
2022-08-11T19:17:43.442Z,31.25
2022-08-11T19:20:32.202Z,30.48
2022-08-11T19:23:20.786Z,31.25
2022-08-11T19:26:07.790Z,31.05
2022-08-11T19:28:55.720Z,30.87
2022-08-11T19:31:45.212Z,30.87
2022-08-11T19:34:33.169Z,31.28
2022-08-11T19:37:24.000Z,30.76
2022-08-11T19:40:12.763Z,31.36
2022-08-11T19:43:01.615Z,31.90
2022-08-11T19:45:52.784Z,32.29
2022-08-11T19:48:43.050Z,33.06
2022-08-11T19:51:29.700Z,32.65
2022-08-11T19:54:16.878Z,32.67
2022-08-11T19:57:04.481Z,32.77
2022-08-11T19:59:52.397Z,32.52
2022-08-11T20:02:38.461Z,33.19
2022-08-11T20:05:27.761Z,33.07
2022-08-11T20:08:16.839Z,32.44
2022-08-11T20:11:06.809Z,32.01
2022-08-11T20:13:53.971Z,32.51
2022-08-11T20:16:42.134Z,32.79
2022-08-11T20:19:55.031Z,32.89
2022-08-11T20:22:37.103Z,33.11
2022-08-11T20:25:25.293Z,33.65
2022-08-11T20:28:12.209Z,34.17
2022-08-11T20:30:59.609Z,33.93
2022-08-11T20:33:45.355Z,33.56
2022-08-11T20:36:33.684Z,33.74
2022-08-11T20:39:22.907Z,34.28
2022-08-11T20:42:10.053Z,33.53
2022-08-11T20:44:57.989Z,34.39
2022-08-11T20:47:59.735Z,34.42
2022-08-11T20:50:47.619Z,34.38
2022-08-11T20:53:39.163Z,35.16
2022-08-11T20:56:30.005Z,35.46
2022-08-11T21:02:25.751Z,35.49
2022-08-11T21:05:15.854Z,35.81
2022-08-11T21:08:09.783Z,35.43
2022-08-11T21:11:00.762Z,35.51
2022-08-11T21:13:53.886Z,36.12
2022-08-11T21:16:47.544Z,35.66
2022-08-11T21:20:00.605Z,35.62
2022-08-11T21:22:59.350Z,35.88
2022-08-11T21:25:59.241Z,36.30
2022-08-11T21:28:48.567Z,36.46
2022-08-11T21:31:36.890Z,35.79
2022-08-11T21:34:25.035Z,35.95
2022-08-11T21:37:11.924Z,36.41
2022-08-11T21:39:58.779Z,35.71
2022-08-11T21:42:46.365Z,35.73
2022-08-11T21:45:34.564Z,36.15
2022-08-11T21:48:21.096Z,36.41
2022-08-11T21:51:06.792Z,36.44
2022-08-11T21:53:53.040Z,37.29
2022-08-11T21:56:40.290Z,37.18
2022-08-11T21:59:26.540Z,37.14
2022-08-11T22:02:14.460Z,36.75
2022-08-11T22:05:01.472Z,36.54
2022-08-11T22:07:47.859Z,36.63
2022-08-11T22:10:40.928Z,37.45
2022-08-11T22:13:30.893Z,37.36
2022-08-11T22:16:17.458Z,37.18
2022-08-11T22:19:05.960Z,37.57
2022-08-11T22:22:01.540Z,37.77
2022-08-11T22:24:50.480Z,37.60
2022-08-11T22:27:36.634Z,37.13
2022-08-11T22:30:24.294Z,37.17
2022-08-11T22:33:10.778Z,36.93
2022-08-11T22:35:59.904Z,37.33
2022-08-11T22:38:46.515Z,37.29
2022-08-11T22:41:32.840Z,36.87
2022-08-11T22:44:18.424Z,36.86
2022-08-11T22:47:05.283Z,36.97
2022-08-11T22:49:57.429Z,36.82
2022-08-11T22:52:48.687Z,36.81
2022-08-11T22:55:35.876Z,36.80
2022-08-11T22:58:22.561Z,37.03
2022-08-11T23:01:08.685Z,37.40
2022-08-11T23:03:54.991Z,37.52
2022-08-11T23:06:41.024Z,37.54
2022-08-11T23:09:29.399Z,36.95
2022-08-11T23:12:16.452Z,37.42
2022-08-11T23:15:03.753Z,37.94
2022-08-11T23:17:50.962Z,38.29
2022-08-11T23:20:52.880Z,38.50
2022-08-11T23:23:41.806Z,38.78
2022-08-11T23:26:30.043Z,39.04
2022-08-11T23:29:17.202Z,39.18
2022-08-11T23:32:05.843Z,38.84
2022-08-11T23:35:03.643Z,38.95
2022-08-11T23:37:51.330Z,39.27
2022-08-11T23:40:37.331Z,38.68
2022-08-11T23:43:25.212Z,38.34
2022-08-11T23:46:10.790Z,38.87
2022-08-11T23:48:57.958Z,38.71
2022-08-11T23:51:45.804Z,38.62
2022-08-11T23:54:37.153Z,38.87
2022-08-11T23:57:24.201Z,38.98
